sensor_id;sensor_type;location;lat;lon;timestamp;P1;durP1;ratioP1;P2;durP2;ratioP2
5129;SDS011;2583;50.946;6.954;2023-05-13T00:00:25;14.33;;;13.17;;
5129;SDS011;2583;50.946;6.954;2023-05-13T00:02:51;14.13;;;12.73;;
5129;SDS011;2583;50.946;6.954;2023-05-13T00:05:18;19.37;;;13.20;;
5129;SDS011;2583;50.946;6.954;2023-05-13T00:07:45;15.20;;;13.90;;
5129;SDS011;2583;50.946;6.954;2023-05-13T00:10:12;14.40;;;13.10;;
5129;SDS011;2583;50.946;6.954;2023-05-13T00:12:39;16.43;;;13.33;;
5129;SDS011;2583;50.946;6.954;2023-05-13T00:15:06;15.00;;;12.73;;
5129;SDS011;2583;50.946;6.954;2023-05-13T00:17:33;13.80;;;12.73;;
5129;SDS011;2583;50.946;6.954;2023-05-13T00:20:00;14.03;;;12.60;;
5129;SDS011;2583;50.946;6.954;2023-05-13T00:22:27;13.70;;;12.60;;
5129;SDS011;2583;50.946;6.954;2023-05-13T00:24:53;17.20;;;13.50;;
5129;SDS011;2583;50.946;6.954;2023-05-13T00:27:20;14.43;;;13.03;;
5129;SDS011;2583;50.946;6.954;2023-05-13T00:29:47;17.43;;;13.93;;
5129;SDS011;2583;50.946;6.954;2023-05-13T00:32:14;15.87;;;13.73;;
5129;SDS011;2583;50.946;6.954;2023-05-13T00:34:40;13.87;;;12.63;;
5129;SDS011;2583;50.946;6.954;2023-05-13T00:37:07;14.43;;;13.33;;
5129;SDS011;2583;50.946;6.954;2023-05-13T00:39:35;14.50;;;13.43;;
5129;SDS011;2583;50.946;6.954;2023-05-13T00:42:02;15.53;;;14.10;;
5129;SDS011;2583;50.946;6.954;2023-05-13T00:44:30;14.53;;;13.33;;
5129;SDS011;2583;50.946;6.954;2023-05-13T00:46:56;16.57;;;14.87;;
5129;SDS011;2583;50.946;6.954;2023-05-13T00:49:24;16.30;;;14.97;;
5129;SDS011;2583;50.946;6.954;2023-05-13T00:51:51;15.60;;;14.17;;
5129;SDS011;2583;50.946;6.954;2023-05-13T00:54:20;19.80;;;16.10;;
5129;SDS011;2583;50.946;6.954;2023-05-13T00:56:47;15.90;;;14.30;;
5129;SDS011;2583;50.946;6.954;2023-05-13T00:59:14;17.53;;;14.13;;
5129;SDS011;2583;50.946;6.954;2023-05-13T01:01:53;16.97;;;13.87;;
5129;SDS011;2583;50.946;6.954;2023-05-13T01:12:03;16.60;;;15.20;;
5129;SDS011;2583;50.946;6.954;2023-05-13T01:14:35;22.40;;;15.80;;
5129;SDS011;2583;50.946;6.954;2023-05-13T01:17:11;16.80;;;15.03;;
5129;SDS011;2583;50.946;6.954;2023-05-13T01:19:43;20.07;;;15.80;;
5129;SDS011;2583;50.946;6.954;2023-05-13T01:22:14;17.67;;;15.30;;
5129;SDS011;2583;50.946;6.954;2023-05-13T01:24:42;16.47;;;15.10;;
5129;SDS011;2583;50.946;6.954;2023-05-13T01:27:08;16.60;;;14.87;;
5129;SDS011;2583;50.946;6.954;2023-05-13T01:29:35;16.07;;;14.50;;
5129;SDS011;2583;50.946;6.954;2023-05-13T01:32:03;17.10;;;15.57;;
5129;SDS011;2583;50.946;6.954;2023-05-13T01:34:30;17.17;;;15.30;;
5129;SDS011;2583;50.946;6.954;2023-05-13T01:36:58;17.37;;;15.80;;
5129;SDS011;2583;50.946;6.954;2023-05-13T01:39:26;17.83;;;16.33;;
5129;SDS011;2583;50.946;6.954;2023-05-13T01:41:53;17.40;;;15.80;;
5129;SDS011;2583;50.946;6.954;2023-05-13T01:44:20;18.37;;;16.63;;
5129;SDS011;2583;50.946;6.954;2023-05-13T01:46:47;18.90;;;16.03;;
5129;SDS011;2583;50.946;6.954;2023-05-13T01:49:15;17.83;;;16.17;;
5129;SDS011;2583;50.946;6.954;2023-05-13T01:51:42;18.33;;;16.53;;
5129;SDS011;2583;50.946;6.954;2023-05-13T01:54:09;18.40;;;16.53;;
5129;SDS011;2583;50.946;6.954;2023-05-13T01:56:36;16.80;;;15.00;;
5129;SDS011;2583;50.946;6.954;2023-05-13T01:59:04;27.00;;;17.17;;
5129;SDS011;2583;50.946;6.954;2023-05-13T02:01:30;18.60;;;16.80;;
5129;SDS011;2583;50.946;6.954;2023-05-13T02:03:57;18.93;;;17.13;;
5129;SDS011;2583;50.946;6.954;2023-05-13T02:06:25;18.70;;;17.07;;
5129;SDS011;2583;50.946;6.954;2023-05-13T02:08:53;18.07;;;16.30;;
5129;SDS011;2583;50.946;6.954;2023-05-13T02:11:20;18.50;;;16.80;;
5129;SDS011;2583;50.946;6.954;2023-05-13T02:13:47;17.57;;;15.93;;
5129;SDS011;2583;50.946;6.954;2023-05-13T02:16:17;18.10;;;16.47;;
5129;SDS011;2583;50.946;6.954;2023-05-13T02:18:45;17.57;;;15.90;;
5129;SDS011;2583;50.946;6.954;2023-05-13T02:21:12;18.57;;;16.77;;
5129;SDS011;2583;50.946;6.954;2023-05-13T02:23:38;17.80;;;15.90;;
5129;SDS011;2583;50.946;6.954;2023-05-13T02:26:05;20.60;;;18.40;;
5129;SDS011;2583;50.946;6.954;2023-05-13T02:28:32;23.03;;;18.40;;
5129;SDS011;2583;50.946;6.954;2023-05-13T02:30:58;20.87;;;18.87;;
5129;SDS011;2583;50.946;6.954;2023-05-13T02:33:25;20.47;;;18.40;;
5129;SDS011;2583;50.946;6.954;2023-05-13T02:35:52;24.30;;;18.20;;
5129;SDS011;2583;50.946;6.954;2023-05-13T02:38:19;20.43;;;17.40;;
5129;SDS011;2583;50.946;6.954;2023-05-13T02:40:46;20.13;;;18.33;;
5129;SDS011;2583;50.946;6.954;2023-05-13T02:43:13;20.27;;;18.27;;
5129;SDS011;2583;50.946;6.954;2023-05-13T02:45:40;21.10;;;19.30;;
5129;SDS011;2583;50.946;6.954;2023-05-13T02:48:07;19.83;;;18.00;;
5129;SDS011;2583;50.946;6.954;2023-05-13T02:50:36;21.10;;;19.27;;
5129;SDS011;2583;50.946;6.954;2023-05-13T02:53:03;20.77;;;18.57;;
5129;SDS011;2583;50.946;6.954;2023-05-13T02:55:30;21.43;;;19.47;;
5129;SDS011;2583;50.946;6.954;2023-05-13T02:57:56;20.57;;;18.10;;
5129;SDS011;2583;50.946;6.954;2023-05-13T03:00:23;22.60;;;20.57;;
5129;SDS011;2583;50.946;6.954;2023-05-13T03:02:50;19.83;;;18.03;;
5129;SDS011;2583;50.946;6.954;2023-05-13T03:05:17;21.97;;;19.53;;
5129;SDS011;2583;50.946;6.954;2023-05-13T03:07:44;22.93;;;19.30;;
5129;SDS011;2583;50.946;6.954;2023-05-13T03:10:12;21.23;;;19.10;;
5129;SDS011;2583;50.946;6.954;2023-05-13T03:12:39;20.97;;;19.17;;
5129;SDS011;2583;50.946;6.954;2023-05-13T03:15:06;22.50;;;20.27;;
5129;SDS011;2583;50.946;6.954;2023-05-13T03:17:33;22.30;;;19.87;;
5129;SDS011;2583;50.946;6.954;2023-05-13T03:20:00;24.30;;;21.63;;
5129;SDS011;2583;50.946;6.954;2023-05-13T03:22:27;23.17;;;20.97;;
5129;SDS011;2583;50.946;6.954;2023-05-13T03:24:54;24.37;;;21.90;;
5129;SDS011;2583;50.946;6.954;2023-05-13T03:27:21;24.17;;;21.77;;
5129;SDS011;2583;50.946;6.954;2023-05-13T03:29:47;25.37;;;22.83;;
5129;SDS011;2583;50.946;6.954;2023-05-13T03:32:14;26.07;;;23.30;;
5129;SDS011;2583;50.946;6.954;2023-05-13T03:34:41;25.30;;;22.57;;
5129;SDS011;2583;50.946;6.954;2023-05-13T03:37:07;24.90;;;22.40;;
5129;SDS011;2583;50.946;6.954;2023-05-13T03:39:35;28.33;;;22.50;;
5129;SDS011;2583;50.946;6.954;2023-05-13T03:42:02;27.47;;;24.57;;
5129;SDS011;2583;50.946;6.954;2023-05-13T03:44:29;27.37;;;24.43;;
5129;SDS011;2583;50.946;6.954;2023-05-13T03:46:55;26.53;;;23.67;;
5129;SDS011;2583;50.946;6.954;2023-05-13T03:49:22;25.37;;;22.67;;
5129;SDS011;2583;50.946;6.954;2023-05-13T03:51:49;31.10;;;24.30;;
5129;SDS011;2583;50.946;6.954;2023-05-13T03:54:16;24.70;;;22.10;;
5129;SDS011;2583;50.946;6.954;2023-05-13T03:56:42;25.80;;;23.13;;
5129;SDS011;2583;50.946;6.954;2023-05-13T03:59:09;23.77;;;21.57;;
5129;SDS011;2583;50.946;6.954;2023-05-13T04:01:36;26.10;;;22.50;;
5129;SDS011;2583;50.946;6.954;2023-05-13T04:04:03;25.43;;;23.00;;
5129;SDS011;2583;50.946;6.954;2023-05-13T04:06:30;26.00;;;23.37;;
5129;SDS011;2583;50.946;6.954;2023-05-13T04:08:57;25.50;;;23.00;;
5129;SDS011;2583;50.946;6.954;2023-05-13T04:11:23;27.83;;;25.07;;
5129;SDS011;2583;50.946;6.954;2023-05-13T04:13:51;27.50;;;24.60;;
5129;SDS011;2583;50.946;6.954;2023-05-13T04:16:18;27.80;;;23.83;;
5129;SDS011;2583;50.946;6.954;2023-05-13T04:18:44;28.17;;;24.07;;
5129;SDS011;2583;50.946;6.954;2023-05-13T04:21:11;26.03;;;23.53;;
5129;SDS011;2583;50.946;6.954;2023-05-13T04:23:38;29.13;;;22.87;;
5129;SDS011;2583;50.946;6.954;2023-05-13T04:26:05;25.13;;;22.73;;
5129;SDS011;2583;50.946;6.954;2023-05-13T04:28:31;26.90;;;24.30;;
5129;SDS011;2583;50.946;6.954;2023-05-13T04:30:59;27.17;;;24.47;;
5129;SDS011;2583;50.946;6.954;2023-05-13T04:33:28;30.80;;;26.90;;
5129;SDS011;2583;50.946;6.954;2023-05-13T04:35:54;31.30;;;28.10;;
5129;SDS011;2583;50.946;6.954;2023-05-13T04:38:21;31.13;;;26.60;;
5129;SDS011;2583;50.946;6.954;2023-05-13T04:40:48;30.43;;;27.13;;
5129;SDS011;2583;50.946;6.954;2023-05-13T04:43:14;31.93;;;28.77;;
5129;SDS011;2583;50.946;6.954;2023-05-13T04:45:41;33.00;;;26.90;;
5129;SDS011;2583;50.946;6.954;2023-05-13T04:48:08;28.43;;;25.67;;
5129;SDS011;2583;50.946;6.954;2023-05-13T04:50:35;28.70;;;25.90;;
5129;SDS011;2583;50.946;6.954;2023-05-13T04:53:02;28.40;;;25.63;;
5129;SDS011;2583;50.946;6.954;2023-05-13T04:55:29;28.23;;;25.23;;
5129;SDS011;2583;50.946;6.954;2023-05-13T04:57:56;28.07;;;25.27;;
5129;SDS011;2583;50.946;6.954;2023-05-13T05:00:23;25.17;;;22.47;;
5129;SDS011;2583;50.946;6.954;2023-05-13T05:02:50;26.50;;;24.10;;
5129;SDS011;2583;50.946;6.954;2023-05-13T05:05:17;25.63;;;23.33;;
5129;SDS011;2583;50.946;6.954;2023-05-13T05:07:43;30.63;;;24.00;;
5129;SDS011;2583;50.946;6.954;2023-05-13T05:10:10;27.27;;;24.40;;
5129;SDS011;2583;50.946;6.954;2023-05-13T05:12:38;25.67;;;23.27;;
5129;SDS011;2583;50.946;6.954;2023-05-13T05:15:05;26.63;;;24.17;;
5129;SDS011;2583;50.946;6.954;2023-05-13T05:17:36;25.13;;;22.73;;
5129;SDS011;2583;50.946;6.954;2023-05-13T05:20:03;27.43;;;22.77;;
5129;SDS011;2583;50.946;6.954;2023-05-13T05:22:30;26.50;;;23.67;;
5129;SDS011;2583;50.946;6.954;2023-05-13T05:24:57;26.97;;;23.43;;
5129;SDS011;2583;50.946;6.954;2023-05-13T05:27:24;25.17;;;22.63;;
5129;SDS011;2583;50.946;6.954;2023-05-13T05:29:51;25.47;;;22.77;;
5129;SDS011;2583;50.946;6.954;2023-05-13T05:32:18;24.07;;;21.70;;
5129;SDS011;2583;50.946;6.954;2023-05-13T05:34:45;25.87;;;22.57;;
5129;SDS011;2583;50.946;6.954;2023-05-13T05:37:11;22.63;;;20.30;;
5129;SDS011;2583;50.946;6.954;2023-05-13T05:39:38;22.97;;;20.40;;
5129;SDS011;2583;50.946;6.954;2023-05-13T05:42:06;22.67;;;20.27;;
5129;SDS011;2583;50.946;6.954;2023-05-13T05:44:33;23.23;;;19.00;;
5129;SDS011;2583;50.946;6.954;2023-05-13T05:47:00;22.07;;;19.87;;
5129;SDS011;2583;50.946;6.954;2023-05-13T05:49:27;19.77;;;17.70;;
5129;SDS011;2583;50.946;6.954;2023-05-13T05:51:53;17.50;;;16.00;;
5129;SDS011;2583;50.946;6.954;2023-05-13T05:54:20;18.53;;;17.03;;
5129;SDS011;2583;50.946;6.954;2023-05-13T05:56:47;17.83;;;16.23;;
5129;SDS011;2583;50.946;6.954;2023-05-13T05:59:13;15.73;;;14.47;;
5129;SDS011;2583;50.946;6.954;2023-05-13T06:01:40;14.20;;;13.10;;
5129;SDS011;2583;50.946;6.954;2023-05-13T06:04:07;13.97;;;12.80;;
5129;SDS011;2583;50.946;6.954;2023-05-13T06:06:34;13.83;;;12.90;;
5129;SDS011;2583;50.946;6.954;2023-05-13T06:09:01;13.20;;;12.20;;
5129;SDS011;2583;50.946;6.954;2023-05-13T06:11:28;13.97;;;12.90;;
5129;SDS011;2583;50.946;6.954;2023-05-13T06:13:55;13.40;;;12.30;;
5129;SDS011;2583;50.946;6.954;2023-05-13T06:16:22;13.50;;;12.20;;
5129;SDS011;2583;50.946;6.954;2023-05-13T06:18:49;13.47;;;12.30;;
5129;SDS011;2583;50.946;6.954;2023-05-13T06:21:16;12.80;;;11.87;;
5129;SDS011;2583;50.946;6.954;2023-05-13T06:23:43;12.33;;;11.10;;
5129;SDS011;2583;50.946;6.954;2023-05-13T06:26:09;12.10;;;11.20;;
5129;SDS011;2583;50.946;6.954;2023-05-13T06:28:36;12.43;;;11.13;;
5129;SDS011;2583;50.946;6.954;2023-05-13T06:31:03;11.67;;;10.70;;
5129;SDS011;2583;50.946;6.954;2023-05-13T06:33:30;10.30;;;9.57;;
5129;SDS011;2583;50.946;6.954;2023-05-13T06:35:57;9.67;;;8.70;;
5129;SDS011;2583;50.946;6.954;2023-05-13T06:38:24;9.97;;;9.37;;
5129;SDS011;2583;50.946;6.954;2023-05-13T06:40:51;10.40;;;9.60;;
5129;SDS011;2583;50.946;6.954;2023-05-13T06:43:17;9.50;;;8.90;;
5129;SDS011;2583;50.946;6.954;2023-05-13T06:45:44;9.93;;;9.13;;
5129;SDS011;2583;50.946;6.954;2023-05-13T06:48:12;9.67;;;8.67;;
5129;SDS011;2583;50.946;6.954;2023-05-13T06:50:39;9.67;;;8.97;;
5129;SDS011;2583;50.946;6.954;2023-05-13T06:53:07;9.57;;;8.77;;
5129;SDS011;2583;50.946;6.954;2023-05-13T06:55:36;8.20;;;7.60;;
5129;SDS011;2583;50.946;6.954;2023-05-13T06:58:07;7.43;;;6.93;;
5129;SDS011;2583;50.946;6.954;2023-05-13T07:00:38;8.70;;;8.13;;
5129;SDS011;2583;50.946;6.954;2023-05-13T07:03:06;8.33;;;7.83;;
5129;SDS011;2583;50.946;6.954;2023-05-13T07:05:34;12.97;;;7.00;;
5129;SDS011;2583;50.946;6.954;2023-05-13T07:08:01;8.07;;;7.50;;
5129;SDS011;2583;50.946;6.954;2023-05-13T07:10:32;9.67;;;8.67;;
5129;SDS011;2583;50.946;6.954;2023-05-13T07:13:03;8.10;;;7.50;;
5129;SDS011;2583;50.946;6.954;2023-05-13T07:15:30;8.00;;;7.50;;
5129;SDS011;2583;50.946;6.954;2023-05-13T07:17:56;8.17;;;7.30;;
5129;SDS011;2583;50.946;6.954;2023-05-13T07:20:23;7.87;;;7.33;;
5129;SDS011;2583;50.946;6.954;2023-05-13T07:22:51;9.10;;;7.80;;
5129;SDS011;2583;50.946;6.954;2023-05-13T07:25:18;10.10;;;7.70;;
5129;SDS011;2583;50.946;6.954;2023-05-13T07:27:45;7.87;;;7.13;;
5129;SDS011;2583;50.946;6.954;2023-05-13T07:30:13;8.17;;;7.67;;
5129;SDS011;2583;50.946;6.954;2023-05-13T07:32:40;7.57;;;6.97;;
5129;SDS011;2583;50.946;6.954;2023-05-13T07:35:07;8.13;;;7.63;;
5129;SDS011;2583;50.946;6.954;2023-05-13T07:37:35;7.43;;;6.93;;
5129;SDS011;2583;50.946;6.954;2023-05-13T07:40:05;7.97;;;7.27;;
5129;SDS011;2583;50.946;6.954;2023-05-13T07:42:33;9.70;;;7.27;;
5129;SDS011;2583;50.946;6.954;2023-05-13T07:45:00;8.33;;;7.03;;
5129;SDS011;2583;50.946;6.954;2023-05-13T07:47:27;7.63;;;7.00;;
5129;SDS011;2583;50.946;6.954;2023-05-13T07:49:54;8.03;;;7.40;;
5129;SDS011;2583;50.946;6.954;2023-05-13T07:52:21;7.90;;;7.23;;
5129;SDS011;2583;50.946;6.954;2023-05-13T07:54:48;8.03;;;7.50;;
5129;SDS011;2583;50.946;6.954;2023-05-13T07:57:15;7.50;;;6.93;;
5129;SDS011;2583;50.946;6.954;2023-05-13T07:59:42;7.60;;;6.90;;
5129;SDS011;2583;50.946;6.954;2023-05-13T08:02:10;7.83;;;7.33;;
5129;SDS011;2583;50.946;6.954;2023-05-13T08:04:37;8.17;;;7.53;;
5129;SDS011;2583;50.946;6.954;2023-05-13T08:07:04;8.10;;;7.33;;
5129;SDS011;2583;50.946;6.954;2023-05-13T08:09:31;8.23;;;7.53;;
5129;SDS011;2583;50.946;6.954;2023-05-13T08:11:58;9.00;;;8.30;;
5129;SDS011;2583;50.946;6.954;2023-05-13T08:14:25;9.40;;;7.23;;
5129;SDS011;2583;50.946;6.954;2023-05-13T08:16:51;8.33;;;7.73;;
5129;SDS011;2583;50.946;6.954;2023-05-13T08:19:18;12.13;;;7.50;;
5129;SDS011;2583;50.946;6.954;2023-05-13T08:21:45;9.63;;;8.67;;
5129;SDS011;2583;50.946;6.954;2023-05-13T08:24:12;7.57;;;6.87;;
5129;SDS011;2583;50.946;6.954;2023-05-13T08:26:39;7.30;;;6.57;;
5129;SDS011;2583;50.946;6.954;2023-05-13T08:29:05;7.53;;;7.13;;
5129;SDS011;2583;50.946;6.954;2023-05-13T08:31:32;7.17;;;6.30;;
5129;SDS011;2583;50.946;6.954;2023-05-13T08:33:59;5.97;;;5.57;;
5129;SDS011;2583;50.946;6.954;2023-05-13T08:36:26;6.10;;;5.60;;
5129;SDS011;2583;50.946;6.954;2023-05-13T08:38:53;5.80;;;5.40;;
5129;SDS011;2583;50.946;6.954;2023-05-13T08:41:20;6.93;;;6.13;;
5129;SDS011;2583;50.946;6.954;2023-05-13T08:43:48;6.20;;;5.63;;
5129;SDS011;2583;50.946;6.954;2023-05-13T08:46:18;5.67;;;5.17;;
5129;SDS011;2583;50.946;6.954;2023-05-13T08:48:50;7.83;;;6.10;;
5129;SDS011;2583;50.946;6.954;2023-05-13T08:51:18;6.70;;;5.63;;
5129;SDS011;2583;50.946;6.954;2023-05-13T08:53:45;5.97;;;5.53;;
5129;SDS011;2583;50.946;6.954;2023-05-13T08:56:13;6.97;;;5.90;;
5129;SDS011;2583;50.946;6.954;2023-05-13T08:58:40;7.03;;;6.40;;
5129;SDS011;2583;50.946;6.954;2023-05-13T09:01:07;5.80;;;5.40;;
5129;SDS011;2583;50.946;6.954;2023-05-13T09:03:34;6.47;;;5.87;;
5129;SDS011;2583;50.946;6.954;2023-05-13T09:06:05;6.00;;;5.50;;
5129;SDS011;2583;50.946;6.954;2023-05-13T09:08:32;5.63;;;5.23;;
5129;SDS011;2583;50.946;6.954;2023-05-13T09:10:59;6.70;;;5.63;;
5129;SDS011;2583;50.946;6.954;2023-05-13T09:13:26;6.03;;;5.53;;
5129;SDS011;2583;50.946;6.954;2023-05-13T09:15:53;8.37;;;5.93;;
5129;SDS011;2583;50.946;6.954;2023-05-13T09:18:20;5.60;;;5.17;;
5129;SDS011;2583;50.946;6.954;2023-05-13T09:20:47;5.40;;;5.00;;
5129;SDS011;2583;50.946;6.954;2023-05-13T09:23:13;5.57;;;5.07;;
5129;SDS011;2583;50.946;6.954;2023-05-13T09:25:41;9.93;;;5.80;;
5129;SDS011;2583;50.946;6.954;2023-05-13T09:28:08;7.40;;;5.03;;
5129;SDS011;2583;50.946;6.954;2023-05-13T09:30:39;5.70;;;5.20;;
5129;SDS011;2583;50.946;6.954;2023-05-13T09:33:14;6.30;;;4.87;;
5129;SDS011;2583;50.946;6.954;2023-05-13T09:35:48;4.83;;;4.53;;
5129;SDS011;2583;50.946;6.954;2023-05-13T09:38:19;4.90;;;4.50;;
5129;SDS011;2583;50.946;6.954;2023-05-13T09:40:53;6.97;;;5.13;;
5129;SDS011;2583;50.946;6.954;2023-05-13T09:43:23;4.50;;;4.10;;
5129;SDS011;2583;50.946;6.954;2023-05-13T09:45:54;5.50;;;4.60;;
5129;SDS011;2583;50.946;6.954;2023-05-13T09:48:25;4.70;;;4.03;;
5129;SDS011;2583;50.946;6.954;2023-05-13T09:50:54;8.93;;;4.40;;
5129;SDS011;2583;50.946;6.954;2023-05-13T09:53:23;6.40;;;5.00;;
5129;SDS011;2583;50.946;6.954;2023-05-13T09:55:51;4.63;;;4.33;;
5129;SDS011;2583;50.946;6.954;2023-05-13T09:58:23;5.57;;;5.10;;
5129;SDS011;2583;50.946;6.954;2023-05-13T10:00:50;4.93;;;4.60;;
5129;SDS011;2583;50.946;6.954;2023-05-13T10:03:18;5.00;;;4.60;;
5129;SDS011;2583;50.946;6.954;2023-05-13T10:05:45;5.23;;;4.83;;
5129;SDS011;2583;50.946;6.954;2023-05-13T10:08:14;5.83;;;4.23;;
5129;SDS011;2583;50.946;6.954;2023-05-13T10:10:43;5.27;;;4.77;;
5129;SDS011;2583;50.946;6.954;2023-05-13T10:13:15;5.00;;;4.70;;
5129;SDS011;2583;50.946;6.954;2023-05-13T10:18:18;5.87;;;5.57;;
5129;SDS011;2583;50.946;6.954;2023-05-13T10:20:47;7.20;;;6.50;;
5129;SDS011;2583;50.946;6.954;2023-05-13T10:23:19;5.60;;;5.13;;
5129;SDS011;2583;50.946;6.954;2023-05-13T10:25:47;6.13;;;5.40;;
5129;SDS011;2583;50.946;6.954;2023-05-13T10:28:16;6.10;;;5.53;;
5129;SDS011;2583;50.946;6.954;2023-05-13T10:30:43;5.67;;;5.37;;
5129;SDS011;2583;50.946;6.954;2023-05-13T10:33:10;6.80;;;4.93;;
5129;SDS011;2583;50.946;6.954;2023-05-13T10:35:38;8.37;;;5.60;;
5129;SDS011;2583;50.946;6.954;2023-05-13T10:38:09;8.93;;;5.60;;
5129;SDS011;2583;50.946;6.954;2023-05-13T10:43:21;7.20;;;5.97;;
5129;SDS011;2583;50.946;6.954;2023-05-13T10:46:02;6.43;;;5.83;;
5129;SDS011;2583;50.946;6.954;2023-05-13T10:48:50;5.70;;;5.20;;
5129;SDS011;2583;50.946;6.954;2023-05-13T10:51:22;6.80;;;6.20;;
5129;SDS011;2583;50.946;6.954;2023-05-13T10:53:51;15.40;;;11.47;;
5129;SDS011;2583;50.946;6.954;2023-05-13T10:56:22;6.27;;;5.83;;
5129;SDS011;2583;50.946;6.954;2023-05-13T11:01:28;6.80;;;6.20;;
5129;SDS011;2583;50.946;6.954;2023-05-13T11:04:01;8.90;;;6.30;;
5129;SDS011;2583;50.946;6.954;2023-05-13T11:06:36;6.63;;;6.03;;
5129;SDS011;2583;50.946;6.954;2023-05-13T11:09:05;6.20;;;5.60;;
5129;SDS011;2583;50.946;6.954;2023-05-13T11:11:40;6.60;;;5.23;;
5129;SDS011;2583;50.946;6.954;2023-05-13T11:14:12;6.80;;;6.10;;
5129;SDS011;2583;50.946;6.954;2023-05-13T11:17:20;6.30;;;5.80;;
5129;SDS011;2583;50.946;6.954;2023-05-13T11:19:44;6.30;;;5.80;;
5129;SDS011;2583;50.946;6.954;2023-05-13T11:22:13;6.53;;;5.93;;
5129;SDS011;2583;50.946;6.954;2023-05-13T11:24:43;7.93;;;5.97;;
5129;SDS011;2583;50.946;6.954;2023-05-13T11:27:12;8.47;;;7.87;;
5129;SDS011;2583;50.946;6.954;2023-05-13T11:29:49;6.00;;;5.60;;
5129;SDS011;2583;50.946;6.954;2023-05-13T11:35:33;6.00;;;3.10;;
5129;SDS011;2583;50.946;6.954;2023-05-13T11:38:00;6.03;;;3.13;;
5129;SDS011;2583;50.946;6.954;2023-05-13T11:40:29;6.03;;;2.93;;
5129;SDS011;2583;50.946;6.954;2023-05-13T11:42:57;2.73;;;2.33;;
5129;SDS011;2583;50.946;6.954;2023-05-13T11:45:25;3.40;;;3.10;;
5129;SDS011;2583;50.946;6.954;2023-05-13T11:47:53;3.20;;;2.77;;
5129;SDS011;2583;50.946;6.954;2023-05-13T11:50:22;3.40;;;2.73;;
5129;SDS011;2583;50.946;6.954;2023-05-13T11:52:53;5.00;;;2.90;;
5129;SDS011;2583;50.946;6.954;2023-05-13T11:55:24;4.07;;;2.80;;
5129;SDS011;2583;50.946;6.954;2023-05-13T11:57:52;3.80;;;3.50;;
5129;SDS011;2583;50.946;6.954;2023-05-13T12:00:23;4.20;;;3.67;;
5129;SDS011;2583;50.946;6.954;2023-05-13T12:02:52;3.20;;;2.90;;
5129;SDS011;2583;50.946;6.954;2023-05-13T12:05:20;3.60;;;3.30;;
5129;SDS011;2583;50.946;6.954;2023-05-13T12:07:48;4.63;;;3.10;;
5129;SDS011;2583;50.946;6.954;2023-05-13T12:10:15;3.73;;;3.43;;
5129;SDS011;2583;50.946;6.954;2023-05-13T12:12:42;3.83;;;3.40;;
5129;SDS011;2583;50.946;6.954;2023-05-13T12:15:11;2.83;;;2.60;;
5129;SDS011;2583;50.946;6.954;2023-05-13T12:17:39;3.50;;;3.30;;
5129;SDS011;2583;50.946;6.954;2023-05-13T12:22:34;3.80;;;3.23;;
5129;SDS011;2583;50.946;6.954;2023-05-13T12:27:57;8.63;;;2.63;;
5129;SDS011;2583;50.946;6.954;2023-05-13T12:30:25;7.93;;;3.30;;
5129;SDS011;2583;50.946;6.954;2023-05-13T12:33:02;3.00;;;2.80;;
5129;SDS011;2583;50.946;6.954;2023-05-13T12:35:32;3.23;;;2.93;;
5129;SDS011;2583;50.946;6.954;2023-05-13T12:37:59;3.00;;;2.20;;
5129;SDS011;2583;50.946;6.954;2023-05-13T12:40:30;3.30;;;2.20;;
5129;SDS011;2583;50.946;6.954;2023-05-13T12:42:58;3.20;;;2.57;;
5129;SDS011;2583;50.946;6.954;2023-05-13T12:45:29;4.00;;;2.90;;
5129;SDS011;2583;50.946;6.954;2023-05-13T12:47:57;3.50;;;2.80;;
5129;SDS011;2583;50.946;6.954;2023-05-13T12:50:25;2.80;;;2.30;;
5129;SDS011;2583;50.946;6.954;2023-05-13T12:52:52;2.27;;;1.83;;
5129;SDS011;2583;50.946;6.954;2023-05-13T12:55:19;5.13;;;2.43;;
5129;SDS011;2583;50.946;6.954;2023-05-13T12:57:53;3.00;;;2.80;;
5129;SDS011;2583;50.946;6.954;2023-05-13T13:00:21;2.00;;;1.90;;
5129;SDS011;2583;50.946;6.954;2023-05-13T13:02:49;4.33;;;2.47;;
5129;SDS011;2583;50.946;6.954;2023-05-13T13:05:17;2.67;;;1.90;;
5129;SDS011;2583;50.946;6.954;2023-05-13T13:07:44;4.43;;;2.37;;
5129;SDS011;2583;50.946;6.954;2023-05-13T13:10:11;2.57;;;1.70;;
5129;SDS011;2583;50.946;6.954;2023-05-13T13:12:37;2.40;;;2.00;;
5129;SDS011;2583;50.946;6.954;2023-05-13T13:15:08;2.10;;;1.87;;
5129;SDS011;2583;50.946;6.954;2023-05-13T13:17:36;5.53;;;1.87;;
5129;SDS011;2583;50.946;6.954;2023-05-13T13:20:04;3.17;;;2.97;;
5129;SDS011;2583;50.946;6.954;2023-05-13T13:22:32;2.17;;;1.97;;
5129;SDS011;2583;50.946;6.954;2023-05-13T13:25:03;2.47;;;2.27;;
5129;SDS011;2583;50.946;6.954;2023-05-13T13:27:31;3.60;;;1.90;;
5129;SDS011;2583;50.946;6.954;2023-05-13T13:29:59;3.60;;;3.40;;
5129;SDS011;2583;50.946;6.954;2023-05-13T13:32:26;4.80;;;4.47;;
5129;SDS011;2583;50.946;6.954;2023-05-13T13:34:53;4.90;;;4.50;;
5129;SDS011;2583;50.946;6.954;2023-05-13T13:37:19;6.23;;;5.60;;
5129;SDS011;2583;50.946;6.954;2023-05-13T13:39:46;6.80;;;6.30;;
5129;SDS011;2583;50.946;6.954;2023-05-13T13:42:13;7.40;;;5.43;;
5129;SDS011;2583;50.946;6.954;2023-05-13T13:44:40;8.37;;;7.57;;
5129;SDS011;2583;50.946;6.954;2023-05-13T13:47:07;4.40;;;4.10;;
5129;SDS011;2583;50.946;6.954;2023-05-13T13:49:34;3.92;;;3.63;;
5129;SDS011;2583;50.946;6.954;2023-05-13T13:52:01;2.92;;;2.63;;
5129;SDS011;2583;50.946;6.954;2023-05-13T13:54:28;3.00;;;1.90;;
5129;SDS011;2583;50.946;6.954;2023-05-13T13:56:55;2.17;;;1.98;;
5129;SDS011;2583;50.946;6.954;2023-05-13T13:59:22;2.17;;;2.00;;
5129;SDS011;2583;50.946;6.954;2023-05-13T14:01:48;2.22;;;2.03;;
5129;SDS011;2583;50.946;6.954;2023-05-13T14:04:16;3.08;;;2.88;;
5129;SDS011;2583;50.946;6.954;2023-05-13T14:06:52;2.50;;;2.30;;
5129;SDS011;2583;50.946;6.954;2023-05-13T14:09:23;3.25;;;2.10;;
5129;SDS011;2583;50.946;6.954;2023-05-13T14:11:50;4.05;;;2.00;;
5129;SDS011;2583;50.946;6.954;2023-05-13T14:14:17;2.83;;;2.40;;
5129;SDS011;2583;50.946;6.954;2023-05-13T14:16:44;2.15;;;1.95;;
5129;SDS011;2583;50.946;6.954;2023-05-13T14:19:11;2.57;;;2.37;;
5129;SDS011;2583;50.946;6.954;2023-05-13T14:21:38;2.57;;;2.10;;
5129;SDS011;2583;50.946;6.954;2023-05-13T14:24:04;4.80;;;4.40;;
5129;SDS011;2583;50.946;6.954;2023-05-13T14:26:33;3.10;;;2.83;;
5129;SDS011;2583;50.946;6.954;2023-05-13T14:29:00;3.00;;;2.80;;
5129;SDS011;2583;50.946;6.954;2023-05-13T14:31:27;3.43;;;2.70;;
5129;SDS011;2583;50.946;6.954;2023-05-13T14:33:54;3.00;;;2.80;;
5129;SDS011;2583;50.946;6.954;2023-05-13T14:36:21;2.80;;;2.60;;
5129;SDS011;2583;50.946;6.954;2023-05-13T14:38:48;3.07;;;2.77;;
5129;SDS011;2583;50.946;6.954;2023-05-13T14:41:14;3.07;;;2.77;;
5129;SDS011;2583;50.946;6.954;2023-05-13T14:43:45;4.40;;;2.90;;
5129;SDS011;2583;50.946;6.954;2023-05-13T14:46:12;2.30;;;2.10;;
5129;SDS011;2583;50.946;6.954;2023-05-13T14:48:39;3.17;;;2.77;;
5129;SDS011;2583;50.946;6.954;2023-05-13T14:51:06;2.90;;;2.70;;
5129;SDS011;2583;50.946;6.954;2023-05-13T14:53:33;4.07;;;2.37;;
5129;SDS011;2583;50.946;6.954;2023-05-13T14:56:00;2.73;;;2.53;;
5129;SDS011;2583;50.946;6.954;2023-05-13T14:58:26;2.90;;;2.63;;
5129;SDS011;2583;50.946;6.954;2023-05-13T15:00:53;2.60;;;2.40;;
5129;SDS011;2583;50.946;6.954;2023-05-13T15:03:21;2.27;;;2.07;;
5129;SDS011;2583;50.946;6.954;2023-05-13T15:05:48;2.40;;;2.20;;
5129;SDS011;2583;50.946;6.954;2023-05-13T15:08:15;2.60;;;1.60;;
5129;SDS011;2583;50.946;6.954;2023-05-13T15:10:42;2.40;;;2.20;;
5129;SDS011;2583;50.946;6.954;2023-05-13T15:13:09;3.10;;;2.90;;
5129;SDS011;2583;50.946;6.954;2023-05-13T15:15:36;3.30;;;2.27;;
5129;SDS011;2583;50.946;6.954;2023-05-13T15:18:04;2.60;;;2.40;;
5129;SDS011;2583;50.946;6.954;2023-05-13T15:20:31;3.87;;;2.03;;
5129;SDS011;2583;50.946;6.954;2023-05-13T15:22:58;2.60;;;2.40;;
5129;SDS011;2583;50.946;6.954;2023-05-13T15:25:25;2.70;;;2.50;;
5129;SDS011;2583;50.946;6.954;2023-05-13T15:27:52;3.33;;;3.03;;
5129;SDS011;2583;50.946;6.954;2023-05-13T15:30:19;2.40;;;2.20;;